Norse Mersey — IBEN — position and weather

sailwx.info

Track history (hours):
 
Tides and Currents Weather Stations Pressure Air Temp Water Temp Dewpoint Dewpoint Depression Visibility Wind Speed Wind Dir Waves Ship Positions

Norse Mersey

Operator: Norse Merchant Ferries

Last reported at 2016-Aug-25 02:19 UTC. Time now 2016-Aug-25 08:00 UTC.
Position N 38°57' E 015°38'.

Length 175 m; draft 5.4 m.

Type: Passenger vessel. MMSI: 247026000.

Date/timePositionNaut miles runAvg speedWind from/ knotsBaromVisibWave heightAir tempDewpointWater temp
2016-Aug-25 02:19N 38°57' E 015°38'1215.0
2016-Aug-25 01:30N 38°44' E 015°41'1415.4
2016-Aug-25 00:33N 38°30' E 015°42'1514.9
2016-Aug-24 23:33N 38°15' E 015°40'1514.7
2016-Aug-24 22:33N 38°02' E 015°33'21 1.7
2016-Aug-24 10:24N 37°44' E 015°19'1416.0
2016-Aug-24 09:33N 37°56' E 015°27'1515.0
2016-Aug-24 08:33N 38°10' E 015°35'1212.4
2016-Aug-24 07:34N 38°21' E 015°41'1515.0
2016-Aug-24 06:33N 38°36' E 015°40'11614.5
2016-Aug-23 22:32N 40°24' E 014°44'8 0.9
2016-Aug-23 13:26N 40°32' E 014°44'10314.5
2016-Aug-23 06:20N 38°58' E 015°38'1414.7
2016-Aug-23 05:22N 38°44' E 015°41'1215.2
2016-Aug-23 04:33N 38°31' E 015°42'1515.3
2016-Aug-23 03:33N 38°16' E 015°42'1313.5
2016-Aug-23 02:33N 38°04' E 015°35'1111.4
2016-Aug-23 01:33N 37°54' E 015°28'50 5.4
2016-Aug-22 16:19N 37°04' E 015°23'1215.1
2016-Aug-22 15:33N 36°52' E 015°22'1615.6
2016-Aug-22 14:33N 36°39' E 015°13'1515.3
2016-Aug-22 13:33N 36°26' E 015°01'1515.3
2016-Aug-22 12:33N 36°14' E 014°50'1515.0
2016-Aug-22 11:33N 36°02' E 014°39'11 2.7
2016-Aug-22 07:31N 35°53' E 014°31'0 0.4
2016-Aug-22 06:31N 35°53' E 014°30'0 0.0
2016-Aug-22 04:19N 35°53' E 014°30'0 0.0
2016-Aug-22 03:16N 35°53' E 014°30'0 0.1
2016-Aug-22 01:26N 35°53' E 014°31'8 9.3
2016-Aug-22 00:34N 35°59' E 014°37'1413.7
2016-Aug-21 23:34N 36°10' E 014°47'1312.7
2016-Aug-21 22:34N 36°21' E 014°56'1312.6
2016-Aug-21 21:33N 36°31' E 015°05'1313.0
2016-Aug-21 20:33N 36°42' E 015°14'1313.1
2016-Aug-21 19:34N 36°54' E 015°22'1211.9
2016-Aug-21 18:33N 37°06' E 015°23'30 2.7
2016-Aug-21 07:17N 37°35' E 015°14'1216.0
2016-Aug-21 06:33N 37°46' E 015°21'1615.7
2016-Aug-21 05:33N 37°60' E 015°29'1514.7
2016-Aug-21 04:33N 38°13' E 015°36'1212.3
2016-Aug-21 03:33N 38°25' E 015°37'1615.5
2016-Aug-21 02:33N 38°40' E 015°30'10715.3
2016-Aug-20 19:33N 40°21' E 014°45'11 0.9
2016-Aug-20 07:32N 40°32' E 014°44'9315.2
2016-Aug-20 01:24N 39°03' E 015°21'1315.4
2016-Aug-20 00:32N 38°51' E 015°27'1615.4
2016-Aug-19 23:30N 38°36' E 015°33'1415.3
2016-Aug-19 22:34N 38°22' E 015°40'1211.6
2016-Aug-19 21:33N 38°11' E 015°37'1414.0
2016-Aug-19 20:34N 37°58' E 015°30'27 2.2
2016-Aug-19 08:29N 37°35' E 015°14'1515.9
2016-Aug-19 07:32N 37°48' E 015°22'1515.8
2016-Aug-19 06:33N 38°02' E 015°31'1413.7
2016-Aug-19 05:34N 38°15' E 015°38'1313.1
2016-Aug-19 04:33N 38°28' E 015°36'1515.2
2016-Aug-19 03:33N 38°42' E 015°29'10715.1
2016-Aug-18 20:27N 40°24' E 014°45'10 1.0
2016-Aug-18 11:09N 40°34' E 014°43'1015.0
2016-Aug-18 10:30N 40°24' E 014°44'9115.3
2016-Aug-18 04:32N 38°58' E 015°23'1515.4
2016-Aug-18 03:32N 38°43' E 015°30'1615.7
2016-Aug-18 02:32N 38°29' E 015°37'1414.1
2016-Aug-18 01:33N 38°15' E 015°40'1414.1
2016-Aug-18 00:33N 38°02' E 015°33'1414.5
2016-Aug-17 23:33N 37°50' E 015°24'15 1.5
2016-Aug-17 13:30N 37°36' E 015°15'1616.2
2016-Aug-17 12:33N 37°50' E 015°24'1515.2
2016-Aug-17 11:34N 38°04' E 015°32'1515.0
2016-Aug-17 10:33N 38°17' E 015°40'1615.4
2016-Aug-17 09:32N 38°32' E 015°34'1414.8
2016-Aug-17 08:33N 38°46' E 015°27'10715.2
2016-Aug-17 01:32N 40°27' E 014°44'7 0.9
2016-Aug-16 18:09N 40°34' E 014°44'914.5
2016-Aug-16 17:32N 40°25' E 014°45'13214.7
2016-Aug-16 08:33N 38°21' E 015°41'1212.0
2016-Aug-16 07:33N 38°09' E 015°37'1414.4
2016-Aug-16 06:33N 37°56' E 015°29'119 5.1
2016-Aug-15 07:16N 36°04' E 014°41'1014.7
2016-Aug-15 06:33N 35°56' E 014°33'  
Track history (hours):
 
Tides and Currents Weather Stations Pressure Air Temp Water Temp Dewpoint Dewpoint Depression Visibility Wind Speed Wind Dir Waves Ship Positions

Norse Mersey

Operator: Norse Merchant Ferries

Last reported at 2016-Aug-25 02:19 UTC. Time now 2016-Aug-25 08:00 UTC.
Position N 38°57' E 015°38'.

Length 175 m; draft 5.4 m.

Type: Passenger vessel. MMSI: 247026000.

Date/timePositionNaut miles runAvg speedWind from/ knotsBaromVisibWave heightAir tempDewpointWater temp
2016-Aug-25 02:19N 38°57' E 015°38'1215.0
2016-Aug-25 01:30N 38°44' E 015°41'1415.4
2016-Aug-25 00:33N 38°30' E 015°42'1514.9
2016-Aug-24 23:33N 38°15' E 015°40'1514.7
2016-Aug-24 22:33N 38°02' E 015°33'21 1.7
2016-Aug-24 10:24N 37°44' E 015°19'1416.0
2016-Aug-24 09:33N 37°56' E 015°27'1515.0
2016-Aug-24 08:33N 38°10' E 015°35'1212.4
2016-Aug-24 07:34N 38°21' E 015°41'1515.0
2016-Aug-24 06:33N 38°36' E 015°40'11614.5
2016-Aug-23 22:32N 40°24' E 014°44'8 0.9
2016-Aug-23 13:26N 40°32' E 014°44'10314.5
2016-Aug-23 06:20N 38°58' E 015°38'1414.7
2016-Aug-23 05:22N 38°44' E 015°41'1215.2
2016-Aug-23 04:33N 38°31' E 015°42'1515.3
2016-Aug-23 03:33N 38°16' E 015°42'1313.5
2016-Aug-23 02:33N 38°04' E 015°35'1111.4
2016-Aug-23 01:33N 37°54' E 015°28'50 5.4
2016-Aug-22 16:19N 37°04' E 015°23'1215.1
2016-Aug-22 15:33N 36°52' E 015°22'1615.6
2016-Aug-22 14:33N 36°39' E 015°13'1515.3
2016-Aug-22 13:33N 36°26' E 015°01'1515.3
2016-Aug-22 12:33N 36°14' E 014°50'1515.0
2016-Aug-22 11:33N 36°02' E 014°39'11 2.7
2016-Aug-22 07:31N 35°53' E 014°31'0 0.4
2016-Aug-22 06:31N 35°53' E 014°30'0 0.0
2016-Aug-22 04:19N 35°53' E 014°30'0 0.0
2016-Aug-22 03:16N 35°53' E 014°30'0 0.1
2016-Aug-22 01:26N 35°53' E 014°31'8 9.3
2016-Aug-22 00:34N 35°59' E 014°37'1413.7
2016-Aug-21 23:34N 36°10' E 014°47'1312.7
2016-Aug-21 22:34N 36°21' E 014°56'1312.6
2016-Aug-21 21:33N 36°31' E 015°05'1313.0
2016-Aug-21 20:33N 36°42' E 015°14'1313.1
2016-Aug-21 19:34N 36°54' E 015°22'1211.9
2016-Aug-21 18:33N 37°06' E 015°23'30 2.7
2016-Aug-21 07:17N 37°35' E 015°14'1216.0
2016-Aug-21 06:33N 37°46' E 015°21'1615.7
2016-Aug-21 05:33N 37°60' E 015°29'1514.7
2016-Aug-21 04:33N 38°13' E 015°36'1212.3
2016-Aug-21 03:33N 38°25' E 015°37'1615.5
2016-Aug-21 02:33N 38°40' E 015°30'10715.3
2016-Aug-20 19:33N 40°21' E 014°45'11 0.9
2016-Aug-20 07:32N 40°32' E 014°44'9315.2
2016-Aug-20 01:24N 39°03' E 015°21'1315.4
2016-Aug-20 00:32N 38°51' E 015°27'1615.4
2016-Aug-19 23:30N 38°36' E 015°33'1415.3
2016-Aug-19 22:34N 38°22' E 015°40'1211.6
2016-Aug-19 21:33N 38°11' E 015°37'1414.0
2016-Aug-19 20:34N 37°58' E 015°30'27 2.2
2016-Aug-19 08:29N 37°35' E 015°14'1515.9
2016-Aug-19 07:32N 37°48' E 015°22'1515.8
2016-Aug-19 06:33N 38°02' E 015°31'1413.7
2016-Aug-19 05:34N 38°15' E 015°38'1313.1
2016-Aug-19 04:33N 38°28' E 015°36'1515.2
2016-Aug-19 03:33N 38°42' E 015°29'10715.1
2016-Aug-18 20:27N 40°24' E 014°45'10 1.0
2016-Aug-18 11:09N 40°34' E 014°43'1015.0
2016-Aug-18 10:30N 40°24' E 014°44'9115.3
2016-Aug-18 04:32N 38°58' E 015°23'1515.4
2016-Aug-18 03:32N 38°43' E 015°30'1615.7
2016-Aug-18 02:32N 38°29' E 015°37'1414.1
2016-Aug-18 01:33N 38°15' E 015°40'1414.1
2016-Aug-18 00:33N 38°02' E 015°33'1414.5
2016-Aug-17 23:33N 37°50' E 015°24'15 1.5
2016-Aug-17 13:30N 37°36' E 015°15'1616.2
2016-Aug-17 12:33N 37°50' E 015°24'1515.2
2016-Aug-17 11:34N 38°04' E 015°32'1515.0
2016-Aug-17 10:33N 38°17' E 015°40'1615.4
2016-Aug-17 09:32N 38°32' E 015°34'1414.8
2016-Aug-17 08:33N 38°46' E 015°27'10715.2
2016-Aug-17 01:32N 40°27' E 014°44'7 0.9
2016-Aug-16 18:09N 40°34' E 014°44'914.5
2016-Aug-16 17:32N 40°25' E 014°45'13214.7
2016-Aug-16 08:33N 38°21' E 015°41'1212.0
2016-Aug-16 07:33N 38°09' E 015°37'1414.4
2016-Aug-16 06:33N 37°56' E 015°29'119 5.1
2016-Aug-15 07:16N 36°04' E 014°41'1014.7
2016-Aug-15 06:33N 35°56' E 014°33'  

Dump ship's entire track history